sensor_id;sensor_type;location;lat;lon;timestamp;P1;durP1;ratioP1;P2;durP2;ratioP2
5393;SDS011;2720;52.396;10.064;2023-05-01T00:02:10;16.10;;;4.07;;
5393;SDS011;2720;52.396;10.064;2023-05-01T00:04:37;5.80;;;2.93;;
5393;SDS011;2720;52.396;10.064;2023-05-01T00:07:06;10.60;;;2.90;;
5393;SDS011;2720;52.396;10.064;2023-05-01T00:09:33;10.60;;;3.80;;
5393;SDS011;2720;52.396;10.064;2023-05-01T00:12:00;6.63;;;3.47;;
5393;SDS011;2720;52.396;10.064;2023-05-01T00:14:28;10.20;;;3.47;;
5393;SDS011;2720;52.396;10.064;2023-05-01T00:16:55;13.93;;;4.70;;
5393;SDS011;2720;52.396;10.064;2023-05-01T00:19:22;13.70;;;3.87;;
5393;SDS011;2720;52.396;10.064;2023-05-01T00:21:49;10.30;;;3.27;;
5393;SDS011;2720;52.396;10.064;2023-05-01T00:24:18;14.53;;;4.27;;
5393;SDS011;2720;52.396;10.064;2023-05-01T00:26:45;5.77;;;3.03;;
5393;SDS011;2720;52.396;10.064;2023-05-01T00:29:12;7.00;;;4.00;;
5393;SDS011;2720;52.396;10.064;2023-05-01T00:31:39;11.23;;;3.80;;
5393;SDS011;2720;52.396;10.064;2023-05-01T00:34:07;13.23;;;3.23;;
5393;SDS011;2720;52.396;10.064;2023-05-01T00:36:34;12.67;;;4.10;;
5393;SDS011;2720;52.396;10.064;2023-05-01T00:39:01;11.83;;;3.60;;
5393;SDS011;2720;52.396;10.064;2023-05-01T00:41:30;11.77;;;3.80;;
5393;SDS011;2720;52.396;10.064;2023-05-01T00:43:57;9.83;;;3.20;;
5393;SDS011;2720;52.396;10.064;2023-05-01T00:46:24;7.90;;;3.07;;
5393;SDS011;2720;52.396;10.064;2023-05-01T00:48:51;10.73;;;3.33;;
5393;SDS011;2720;52.396;10.064;2023-05-01T00:51:18;9.67;;;4.13;;
5393;SDS011;2720;52.396;10.064;2023-05-01T00:53:46;8.70;;;2.77;;
5393;SDS011;2720;52.396;10.064;2023-05-01T00:56:13;7.30;;;3.13;;
5393;SDS011;2720;52.396;10.064;2023-05-01T00:58:42;12.17;;;3.33;;
5393;SDS011;2720;52.396;10.064;2023-05-01T01:01:12;11.57;;;4.77;;
5393;SDS011;2720;52.396;10.064;2023-05-01T01:03:39;10.80;;;3.30;;
5393;SDS011;2720;52.396;10.064;2023-05-01T01:06:06;9.60;;;4.30;;
5393;SDS011;2720;52.396;10.064;2023-05-01T01:08:39;12.00;;;3.57;;
5393;SDS011;2720;52.396;10.064;2023-05-01T01:11:11;8.03;;;2.83;;
5393;SDS011;2720;52.396;10.064;2023-05-01T01:13:48;6.43;;;3.23;;
5393;SDS011;2720;52.396;10.064;2023-05-01T01:16:22;12.87;;;3.80;;
5393;SDS011;2720;52.396;10.064;2023-05-01T01:18:57;11.47;;;3.80;;
5393;SDS011;2720;52.396;10.064;2023-05-01T01:21:33;10.10;;;4.63;;
5393;SDS011;2720;52.396;10.064;2023-05-01T01:24:25;6.00;;;3.40;;
5393;SDS011;2720;52.396;10.064;2023-05-01T01:27:18;13.83;;;4.10;;
5393;SDS011;2720;52.396;10.064;2023-05-01T01:30:09;14.87;;;4.13;;
5393;SDS011;2720;52.396;10.064;2023-05-01T01:32:59;6.77;;;3.07;;
5393;SDS011;2720;52.396;10.064;2023-05-01T01:35:50;18.90;;;3.80;;
5393;SDS011;2720;52.396;10.064;2023-05-01T01:38:21;10.17;;;3.33;;
5393;SDS011;2720;52.396;10.064;2023-05-01T01:40:55;6.77;;;3.80;;
5393;SDS011;2720;52.396;10.064;2023-05-01T01:43:24;11.50;;;3.63;;
5393;SDS011;2720;52.396;10.064;2023-05-01T01:45:56;8.80;;;3.60;;
5393;SDS011;2720;52.396;10.064;2023-05-01T01:48:29;6.97;;;2.90;;
5393;SDS011;2720;52.396;10.064;2023-05-01T01:51:00;7.90;;;3.67;;
5393;SDS011;2720;52.396;10.064;2023-05-01T01:53:33;18.07;;;5.30;;
5393;SDS011;2720;52.396;10.064;2023-05-01T01:56:02;12.33;;;4.20;;
5393;SDS011;2720;52.396;10.064;2023-05-01T01:58:32;12.23;;;3.53;;
5393;SDS011;2720;52.396;10.064;2023-05-01T02:01:01;12.53;;;3.63;;
5393;SDS011;2720;52.396;10.064;2023-05-01T02:03:30;10.23;;;3.80;;
5393;SDS011;2720;52.396;10.064;2023-05-01T02:06:00;11.10;;;4.40;;
5393;SDS011;2720;52.396;10.064;2023-05-01T02:08:30;8.73;;;3.70;;
5393;SDS011;2720;52.396;10.064;2023-05-01T02:10:58;9.97;;;3.33;;
5393;SDS011;2720;52.396;10.064;2023-05-01T02:13:27;11.40;;;4.60;;
5393;SDS011;2720;52.396;10.064;2023-05-01T02:15:56;11.20;;;3.97;;
5393;SDS011;2720;52.396;10.064;2023-05-01T02:18:24;14.33;;;4.80;;
5393;SDS011;2720;52.396;10.064;2023-05-01T02:20:53;15.60;;;4.03;;
5393;SDS011;2720;52.396;10.064;2023-05-01T02:23:24;9.90;;;3.87;;
5393;SDS011;2720;52.396;10.064;2023-05-01T02:25:53;12.63;;;4.93;;
5393;SDS011;2720;52.396;10.064;2023-05-01T02:28:23;10.83;;;4.17;;
5393;SDS011;2720;52.396;10.064;2023-05-01T02:30:52;14.63;;;4.70;;
5393;SDS011;2720;52.396;10.064;2023-05-01T02:33:19;12.27;;;6.80;;
5393;SDS011;2720;52.396;10.064;2023-05-01T02:35:46;10.33;;;3.70;;
5393;SDS011;2720;52.396;10.064;2023-05-01T02:38:13;10.17;;;3.90;;
5393;SDS011;2720;52.396;10.064;2023-05-01T02:40:43;21.07;;;5.10;;
5393;SDS011;2720;52.396;10.064;2023-05-01T02:43:12;8.17;;;3.80;;
5393;SDS011;2720;52.396;10.064;2023-05-01T02:45:41;12.73;;;3.43;;
5393;SDS011;2720;52.396;10.064;2023-05-01T02:48:10;10.17;;;3.40;;
5393;SDS011;2720;52.396;10.064;2023-05-01T02:50:42;13.47;;;3.60;;
5393;SDS011;2720;52.396;10.064;2023-05-01T02:53:09;13.33;;;4.70;;
5393;SDS011;2720;52.396;10.064;2023-05-01T02:55:39;7.37;;;3.70;;
5393;SDS011;2720;52.396;10.064;2023-05-01T02:58:09;9.37;;;3.97;;
5393;SDS011;2720;52.396;10.064;2023-05-01T03:00:40;11.87;;;4.83;;
5393;SDS011;2720;52.396;10.064;2023-05-01T03:03:07;12.60;;;4.87;;
5393;SDS011;2720;52.396;10.064;2023-05-01T03:05:34;11.50;;;5.43;;
5393;SDS011;2720;52.396;10.064;2023-05-01T03:08:02;8.73;;;4.27;;
5393;SDS011;2720;52.396;10.064;2023-05-01T03:10:29;11.10;;;4.50;;
5393;SDS011;2720;52.396;10.064;2023-05-01T03:12:56;14.10;;;4.63;;
5393;SDS011;2720;52.396;10.064;2023-05-01T03:15:24;10.80;;;5.00;;
5393;SDS011;2720;52.396;10.064;2023-05-01T03:17:51;11.53;;;4.67;;
5393;SDS011;2720;52.396;10.064;2023-05-01T03:20:18;12.37;;;5.40;;
5393;SDS011;2720;52.396;10.064;2023-05-01T03:22:45;13.30;;;4.20;;
5393;SDS011;2720;52.396;10.064;2023-05-01T03:25:12;12.40;;;5.40;;
5393;SDS011;2720;52.396;10.064;2023-05-01T03:27:39;13.60;;;5.10;;
5393;SDS011;2720;52.396;10.064;2023-05-01T03:30:07;7.60;;;4.17;;
5393;SDS011;2720;52.396;10.064;2023-05-01T03:32:36;13.83;;;5.03;;
5393;SDS011;2720;52.396;10.064;2023-05-01T03:35:03;15.30;;;4.87;;
5393;SDS011;2720;52.396;10.064;2023-05-01T03:37:31;17.27;;;5.67;;
5393;SDS011;2720;52.396;10.064;2023-05-01T03:39:58;14.10;;;4.87;;
5393;SDS011;2720;52.396;10.064;2023-05-01T03:42:25;10.10;;;5.40;;
5393;SDS011;2720;52.396;10.064;2023-05-01T03:44:52;12.53;;;5.90;;
5393;SDS011;2720;52.396;10.064;2023-05-01T03:47:19;12.87;;;5.67;;
5393;SDS011;2720;52.396;10.064;2023-05-01T03:49:48;12.00;;;5.17;;
5393;SDS011;2720;52.396;10.064;2023-05-01T03:52:16;13.13;;;4.83;;
5393;SDS011;2720;52.396;10.064;2023-05-01T03:54:43;9.70;;;4.83;;
5393;SDS011;2720;52.396;10.064;2023-05-01T03:57:10;15.17;;;5.63;;
5393;SDS011;2720;52.396;10.064;2023-05-01T03:59:37;16.40;;;5.63;;
5393;SDS011;2720;52.396;10.064;2023-05-01T04:02:04;15.40;;;5.13;;
5393;SDS011;2720;52.396;10.064;2023-05-01T04:04:31;12.67;;;6.17;;
5393;SDS011;2720;52.396;10.064;2023-05-01T04:06:59;13.90;;;5.97;;
5393;SDS011;2720;52.396;10.064;2023-05-01T04:09:27;10.87;;;4.23;;
5393;SDS011;2720;52.396;10.064;2023-05-01T04:11:54;13.60;;;5.57;;
5393;SDS011;2720;52.396;10.064;2023-05-01T04:14:21;15.60;;;5.20;;
5393;SDS011;2720;52.396;10.064;2023-05-01T04:16:49;12.00;;;4.40;;
5393;SDS011;2720;52.396;10.064;2023-05-01T04:19:16;14.80;;;5.80;;
5393;SDS011;2720;52.396;10.064;2023-05-01T04:21:43;12.97;;;5.20;;
5393;SDS011;2720;52.396;10.064;2023-05-01T04:24:11;9.00;;;4.93;;
5393;SDS011;2720;52.396;10.064;2023-05-01T04:26:38;15.27;;;5.40;;
5393;SDS011;2720;52.396;10.064;2023-05-01T04:29:06;22.73;;;4.77;;
5393;SDS011;2720;52.396;10.064;2023-05-01T04:31:33;13.43;;;5.00;;
5393;SDS011;2720;52.396;10.064;2023-05-01T04:34:00;11.90;;;4.57;;
5393;SDS011;2720;52.396;10.064;2023-05-01T04:36:28;8.13;;;4.30;;
5393;SDS011;2720;52.396;10.064;2023-05-01T04:38:57;16.97;;;4.30;;
5393;SDS011;2720;52.396;10.064;2023-05-01T04:41:25;10.00;;;4.73;;
5393;SDS011;2720;52.396;10.064;2023-05-01T04:43:53;14.67;;;5.23;;
5393;SDS011;2720;52.396;10.064;2023-05-01T04:46:20;10.03;;;4.80;;
5393;SDS011;2720;52.396;10.064;2023-05-01T04:48:47;10.70;;;4.40;;
5393;SDS011;2720;52.396;10.064;2023-05-01T04:51:14;10.93;;;4.60;;
5393;SDS011;2720;52.396;10.064;2023-05-01T04:53:41;18.30;;;4.47;;
5393;SDS011;2720;52.396;10.064;2023-05-01T04:56:07;9.07;;;3.57;;
5393;SDS011;2720;52.396;10.064;2023-05-01T04:58:36;14.50;;;5.33;;
5393;SDS011;2720;52.396;10.064;2023-05-01T05:01:03;16.20;;;4.83;;
5393;SDS011;2720;52.396;10.064;2023-05-01T05:03:30;8.60;;;4.80;;
5393;SDS011;2720;52.396;10.064;2023-05-01T05:05:57;7.70;;;4.20;;
5393;SDS011;2720;52.396;10.064;2023-05-01T05:08:24;13.07;;;4.90;;
5393;SDS011;2720;52.396;10.064;2023-05-01T05:10:55;8.00;;;4.10;;
5393;SDS011;2720;52.396;10.064;2023-05-01T05:13:23;20.13;;;5.33;;
5393;SDS011;2720;52.396;10.064;2023-05-01T05:15:51;12.70;;;4.80;;
5393;SDS011;2720;52.396;10.064;2023-05-01T05:18:18;15.00;;;5.20;;
5393;SDS011;2720;52.396;10.064;2023-05-01T05:20:46;7.73;;;4.40;;
5393;SDS011;2720;52.396;10.064;2023-05-01T05:23:13;11.20;;;4.30;;
5393;SDS011;2720;52.396;10.064;2023-05-01T05:25:40;11.03;;;5.50;;
5393;SDS011;2720;52.396;10.064;2023-05-01T05:28:07;12.57;;;4.73;;
5393;SDS011;2720;52.396;10.064;2023-05-01T05:30:34;8.90;;;4.70;;
5393;SDS011;2720;52.396;10.064;2023-05-01T05:33:03;12.20;;;4.83;;
5393;SDS011;2720;52.396;10.064;2023-05-01T05:35:32;7.70;;;4.33;;
5393;SDS011;2720;52.396;10.064;2023-05-01T05:37:59;18.00;;;6.30;;
5393;SDS011;2720;52.396;10.064;2023-05-01T05:40:27;12.70;;;5.13;;
5393;SDS011;2720;52.396;10.064;2023-05-01T05:42:54;12.90;;;4.77;;
5393;SDS011;2720;52.396;10.064;2023-05-01T05:45:21;13.03;;;4.97;;
5393;SDS011;2720;52.396;10.064;2023-05-01T05:47:48;11.77;;;5.07;;
5393;SDS011;2720;52.396;10.064;2023-05-01T05:50:17;10.00;;;4.23;;
5393;SDS011;2720;52.396;10.064;2023-05-01T05:52:44;12.83;;;5.23;;
5393;SDS011;2720;52.396;10.064;2023-05-01T05:55:10;9.00;;;4.60;;
5393;SDS011;2720;52.396;10.064;2023-05-01T05:57:37;19.63;;;4.03;;
5393;SDS011;2720;52.396;10.064;2023-05-01T06:00:05;7.03;;;4.17;;
5393;SDS011;2720;52.396;10.064;2023-05-01T06:02:34;11.40;;;4.90;;
5393;SDS011;2720;52.396;10.064;2023-05-01T06:05:01;11.23;;;3.90;;
5393;SDS011;2720;52.396;10.064;2023-05-01T06:07:29;10.03;;;4.93;;
5393;SDS011;2720;52.396;10.064;2023-05-01T06:09:56;7.50;;;4.17;;
5393;SDS011;2720;52.396;10.064;2023-05-01T06:12:28;8.17;;;3.83;;
5393;SDS011;2720;52.396;10.064;2023-05-01T06:14:55;11.00;;;4.10;;
5393;SDS011;2720;52.396;10.064;2023-05-01T06:17:22;11.10;;;4.57;;
5393;SDS011;2720;52.396;10.064;2023-05-01T06:19:50;10.97;;;4.90;;
5393;SDS011;2720;52.396;10.064;2023-05-01T06:22:17;18.03;;;4.77;;
5393;SDS011;2720;52.396;10.064;2023-05-01T06:24:45;15.90;;;4.80;;
5393;SDS011;2720;52.396;10.064;2023-05-01T06:27:12;21.80;;;4.37;;
5393;SDS011;2720;52.396;10.064;2023-05-01T06:29:39;14.07;;;5.07;;
5393;SDS011;2720;52.396;10.064;2023-05-01T06:32:06;10.83;;;4.50;;
5393;SDS011;2720;52.396;10.064;2023-05-01T06:34:33;13.70;;;3.80;;
5393;SDS011;2720;52.396;10.064;2023-05-01T06:37:00;12.73;;;5.07;;
5393;SDS011;2720;52.396;10.064;2023-05-01T06:39:29;12.60;;;4.80;;
5393;SDS011;2720;52.396;10.064;2023-05-01T06:41:57;17.10;;;5.13;;
5393;SDS011;2720;52.396;10.064;2023-05-01T06:44:25;12.83;;;4.87;;
5393;SDS011;2720;52.396;10.064;2023-05-01T06:46:52;15.53;;;5.40;;
5393;SDS011;2720;52.396;10.064;2023-05-01T06:49:20;14.93;;;4.07;;
5393;SDS011;2720;52.396;10.064;2023-05-01T06:51:47;17.80;;;5.63;;
5393;SDS011;2720;52.396;10.064;2023-05-01T06:54:14;11.00;;;4.20;;
5393;SDS011;2720;52.396;10.064;2023-05-01T06:56:41;11.10;;;4.87;;
5393;SDS011;2720;52.396;10.064;2023-05-01T06:59:10;15.50;;;4.80;;
5393;SDS011;2720;52.396;10.064;2023-05-01T07:01:37;9.57;;;3.63;;
5393;SDS011;2720;52.396;10.064;2023-05-01T07:04:04;9.63;;;4.10;;
5393;SDS011;2720;52.396;10.064;2023-05-01T07:06:31;19.23;;;5.60;;
5393;SDS011;2720;52.396;10.064;2023-05-01T07:08:59;10.80;;;3.77;;
5393;SDS011;2720;52.396;10.064;2023-05-01T07:11:26;13.63;;;4.33;;
5393;SDS011;2720;52.396;10.064;2023-05-01T07:13:53;12.43;;;4.20;;
5393;SDS011;2720;52.396;10.064;2023-05-01T07:16:21;16.80;;;3.40;;
5393;SDS011;2720;52.396;10.064;2023-05-01T07:18:48;12.00;;;3.80;;
5393;SDS011;2720;52.396;10.064;2023-05-01T07:21:15;12.73;;;4.30;;
5393;SDS011;2720;52.396;10.064;2023-05-01T07:23:42;9.53;;;3.47;;
5393;SDS011;2720;52.396;10.064;2023-05-01T07:26:10;10.23;;;3.40;;
5393;SDS011;2720;52.396;10.064;2023-05-01T07:28:37;11.17;;;3.50;;
5393;SDS011;2720;52.396;10.064;2023-05-01T07:31:05;17.07;;;3.80;;
5393;SDS011;2720;52.396;10.064;2023-05-01T07:33:35;10.40;;;3.33;;
5393;SDS011;2720;52.396;10.064;2023-05-01T07:36:03;8.80;;;3.87;;
5393;SDS011;2720;52.396;10.064;2023-05-01T07:38:30;14.87;;;4.93;;
5393;SDS011;2720;52.396;10.064;2023-05-01T07:40:57;12.17;;;4.70;;
5393;SDS011;2720;52.396;10.064;2023-05-01T07:43:24;29.03;;;8.17;;
5393;SDS011;2720;52.396;10.064;2023-05-01T07:45:54;9.47;;;4.00;;
5393;SDS011;2720;52.396;10.064;2023-05-01T07:48:22;9.23;;;3.83;;
5393;SDS011;2720;52.396;10.064;2023-05-01T07:50:51;12.23;;;4.57;;
5393;SDS011;2720;52.396;10.064;2023-05-01T07:53:19;9.30;;;4.20;;
5393;SDS011;2720;52.396;10.064;2023-05-01T07:55:46;12.67;;;4.97;;
5393;SDS011;2720;52.396;10.064;2023-05-01T07:58:14;13.50;;;4.10;;
5393;SDS011;2720;52.396;10.064;2023-05-01T08:00:41;12.13;;;4.70;;
5393;SDS011;2720;52.396;10.064;2023-05-01T08:03:10;10.97;;;4.33;;
5393;SDS011;2720;52.396;10.064;2023-05-01T08:05:38;10.30;;;5.20;;
5393;SDS011;2720;52.396;10.064;2023-05-01T08:08:07;14.97;;;4.87;;
5393;SDS011;2720;52.396;10.064;2023-05-01T08:10:34;10.03;;;4.43;;
5393;SDS011;2720;52.396;10.064;2023-05-01T08:13:01;14.57;;;4.43;;
5393;SDS011;2720;52.396;10.064;2023-05-01T08:15:28;8.50;;;4.30;;
5393;SDS011;2720;52.396;10.064;2023-05-01T08:17:55;9.43;;;4.23;;
5393;SDS011;2720;52.396;10.064;2023-05-01T08:20:22;11.20;;;5.10;;
5393;SDS011;2720;52.396;10.064;2023-05-01T08:22:49;9.93;;;3.87;;
5393;SDS011;2720;52.396;10.064;2023-05-01T08:25:17;11.00;;;3.87;;
5393;SDS011;2720;52.396;10.064;2023-05-01T08:27:44;8.83;;;3.73;;
5393;SDS011;2720;52.396;10.064;2023-05-01T08:30:13;13.13;;;4.40;;
5393;SDS011;2720;52.396;10.064;2023-05-01T08:32:40;7.90;;;3.47;;
5393;SDS011;2720;52.396;10.064;2023-05-01T08:35:06;13.23;;;5.10;;
5393;SDS011;2720;52.396;10.064;2023-05-01T08:37:34;8.70;;;4.60;;
5393;SDS011;2720;52.396;10.064;2023-05-01T08:40:01;23.63;;;5.27;;
5393;SDS011;2720;52.396;10.064;2023-05-01T08:42:34;13.03;;;4.73;;
5393;SDS011;2720;52.396;10.064;2023-05-01T08:45:01;10.47;;;4.40;;
5393;SDS011;2720;52.396;10.064;2023-05-01T08:47:29;9.83;;;3.73;;
5393;SDS011;2720;52.396;10.064;2023-05-01T08:49:56;10.30;;;4.37;;
5393;SDS011;2720;52.396;10.064;2023-05-01T08:52:26;8.27;;;4.13;;
5393;SDS011;2720;52.396;10.064;2023-05-01T08:54:54;14.70;;;3.93;;
5393;SDS011;2720;52.396;10.064;2023-05-01T08:57:22;15.53;;;4.20;;
5393;SDS011;2720;52.396;10.064;2023-05-01T08:59:52;7.47;;;4.17;;
5393;SDS011;2720;52.396;10.064;2023-05-01T09:02:22;17.50;;;4.80;;
5393;SDS011;2720;52.396;10.064;2023-05-01T09:04:49;14.20;;;4.13;;
5393;SDS011;2720;52.396;10.064;2023-05-01T09:07:17;10.47;;;4.47;;
5393;SDS011;2720;52.396;10.064;2023-05-01T09:09:45;17.70;;;4.33;;
5393;SDS011;2720;52.396;10.064;2023-05-01T09:12:14;9.03;;;4.10;;
5393;SDS011;2720;52.396;10.064;2023-05-01T09:14:48;12.40;;;4.67;;
5393;SDS011;2720;52.396;10.064;2023-05-01T09:17:16;11.47;;;3.57;;
5393;SDS011;2720;52.396;10.064;2023-05-01T09:19:45;8.17;;;3.27;;
5393;SDS011;2720;52.396;10.064;2023-05-01T09:22:12;8.20;;;3.57;;
5393;SDS011;2720;52.396;10.064;2023-05-01T09:24:42;9.40;;;3.23;;
5393;SDS011;2720;52.396;10.064;2023-05-01T09:27:09;9.07;;;3.23;;
5393;SDS011;2720;52.396;10.064;2023-05-01T09:29:39;8.23;;;3.03;;
5393;SDS011;2720;52.396;10.064;2023-05-01T09:32:11;6.43;;;3.17;;
5393;SDS011;2720;52.396;10.064;2023-05-01T09:34:41;10.60;;;3.47;;
5393;SDS011;2720;52.396;10.064;2023-05-01T09:37:09;14.87;;;4.33;;
5393;SDS011;2720;52.396;10.064;2023-05-01T09:39:37;5.30;;;3.60;;
5393;SDS011;2720;52.396;10.064;2023-05-01T09:42:05;8.57;;;3.10;;
5393;SDS011;2720;52.396;10.064;2023-05-01T09:44:39;7.20;;;3.07;;
5393;SDS011;2720;52.396;10.064;2023-05-01T09:47:08;8.23;;;3.60;;
5393;SDS011;2720;52.396;10.064;2023-05-01T09:52:24;12.20;;;3.50;;
5393;SDS011;2720;52.396;10.064;2023-05-01T09:57:38;7.73;;;3.20;;
5393;SDS011;2720;52.396;10.064;2023-05-01T10:00:07;9.73;;;3.80;;
5393;SDS011;2720;52.396;10.064;2023-05-01T10:02:35;6.23;;;3.30;;
5393;SDS011;2720;52.396;10.064;2023-05-01T10:05:03;9.20;;;2.63;;
5393;SDS011;2720;52.396;10.064;2023-05-01T10:07:31;9.03;;;3.43;;
5393;SDS011;2720;52.396;10.064;2023-05-01T10:10:13;6.73;;;2.80;;
5393;SDS011;2720;52.396;10.064;2023-05-01T10:12:41;12.23;;;3.13;;
5393;SDS011;2720;52.396;10.064;2023-05-01T10:15:08;8.57;;;3.50;;
5393;SDS011;2720;52.396;10.064;2023-05-01T10:17:36;7.90;;;3.60;;
5393;SDS011;2720;52.396;10.064;2023-05-01T10:20:06;5.80;;;3.20;;
5393;SDS011;2720;52.396;10.064;2023-05-01T10:22:35;5.27;;;2.87;;
5393;SDS011;2720;52.396;10.064;2023-05-01T10:25:02;5.30;;;2.83;;
5393;SDS011;2720;52.396;10.064;2023-05-01T10:27:33;7.70;;;2.93;;
5393;SDS011;2720;52.396;10.064;2023-05-01T10:30:01;7.03;;;3.00;;
5393;SDS011;2720;52.396;10.064;2023-05-01T10:32:30;7.20;;;2.97;;
5393;SDS011;2720;52.396;10.064;2023-05-01T10:34:58;12.00;;;2.70;;
5393;SDS011;2720;52.396;10.064;2023-05-01T10:37:30;8.10;;;3.30;;
5393;SDS011;2720;52.396;10.064;2023-05-01T10:43:19;8.50;;;3.37;;
5393;SDS011;2720;52.396;10.064;2023-05-01T10:45:52;8.20;;;3.30;;
5393;SDS011;2720;52.396;10.064;2023-05-01T10:51:19;15.73;;;4.77;;
5393;SDS011;2720;52.396;10.064;2023-05-01T10:53:49;7.07;;;2.60;;
5393;SDS011;2720;52.396;10.064;2023-05-01T10:56:48;11.63;;;3.20;;
5393;SDS011;2720;52.396;10.064;2023-05-01T10:59:15;7.90;;;3.20;;
5393;SDS011;2720;52.396;10.064;2023-05-01T11:01:43;14.30;;;3.60;;
5393;SDS011;2720;52.396;10.064;2023-05-01T11:07:13;7.40;;;3.20;;
5393;SDS011;2720;52.396;10.064;2023-05-01T11:09:43;6.73;;;3.40;;
5393;SDS011;2720;52.396;10.064;2023-05-01T11:12:11;7.93;;;2.77;;
5393;SDS011;2720;52.396;10.064;2023-05-01T11:23:14;5.83;;;2.60;;
5393;SDS011;2720;52.396;10.064;2023-05-01T11:25:47;6.77;;;3.33;;
5393;SDS011;2720;52.396;10.064;2023-05-01T11:28:18;6.53;;;2.03;;
5393;SDS011;2720;52.396;10.064;2023-05-01T11:30:49;6.90;;;2.40;;
5393;SDS011;2720;52.396;10.064;2023-05-01T11:33:22;6.77;;;2.77;;
5393;SDS011;2720;52.396;10.064;2023-05-01T11:35:56;4.97;;;2.60;;
5393;SDS011;2720;52.396;10.064;2023-05-01T11:38:24;6.33;;;2.87;;
5393;SDS011;2720;52.396;10.064;2023-05-01T11:40:54;11.10;;;3.90;;
5393;SDS011;2720;52.396;10.064;2023-05-01T11:43:24;7.90;;;3.10;;
5393;SDS011;2720;52.396;10.064;2023-05-01T11:45:51;6.80;;;2.90;;
5393;SDS011;2720;52.396;10.064;2023-05-01T11:48:27;8.10;;;2.20;;
5393;SDS011;2720;52.396;10.064;2023-05-01T11:50:55;6.83;;;2.90;;
5393;SDS011;2720;52.396;10.064;2023-05-01T11:53:22;6.33;;;2.80;;
5393;SDS011;2720;52.396;10.064;2023-05-01T11:55:49;7.00;;;2.77;;
5393;SDS011;2720;52.396;10.064;2023-05-01T11:58:18;14.13;;;2.53;;
5393;SDS011;2720;52.396;10.064;2023-05-01T12:00:56;8.70;;;2.83;;
5393;SDS011;2720;52.396;10.064;2023-05-01T12:03:24;8.10;;;2.53;;
5393;SDS011;2720;52.396;10.064;2023-05-01T12:05:51;5.80;;;2.33;;
5393;SDS011;2720;52.396;10.064;2023-05-01T12:08:18;6.60;;;2.60;;
5393;SDS011;2720;52.396;10.064;2023-05-01T12:10:48;5.00;;;2.23;;
5393;SDS011;2720;52.396;10.064;2023-05-01T12:13:18;9.23;;;2.13;;
5393;SDS011;2720;52.396;10.064;2023-05-01T12:15:46;10.60;;;2.50;;
5393;SDS011;2720;52.396;10.064;2023-05-01T12:18:16;5.20;;;1.90;;
5393;SDS011;2720;52.396;10.064;2023-05-01T12:20:44;6.93;;;2.00;;
5393;SDS011;2720;52.396;10.064;2023-05-01T12:23:13;5.73;;;2.23;;
5393;SDS011;2720;52.396;10.064;2023-05-01T12:25:41;6.10;;;2.40;;
5393;SDS011;2720;52.396;10.064;2023-05-01T12:28:10;7.93;;;2.53;;
5393;SDS011;2720;52.396;10.064;2023-05-01T12:30:40;5.27;;;1.83;;
5393;SDS011;2720;52.396;10.064;2023-05-01T12:33:08;5.30;;;1.60;;
5393;SDS011;2720;52.396;10.064;2023-05-01T12:35:36;7.50;;;2.20;;
5393;SDS011;2720;52.396;10.064;2023-05-01T12:38:10;6.83;;;1.97;;
5393;SDS011;2720;52.396;10.064;2023-05-01T12:40:39;4.93;;;1.67;;
5393;SDS011;2720;52.396;10.064;2023-05-01T12:43:15;7.60;;;2.47;;
5393;SDS011;2720;52.396;10.064;2023-05-01T12:45:44;5.47;;;2.00;;
5393;SDS011;2720;52.396;10.064;2023-05-01T12:48:12;5.50;;;1.90;;
5393;SDS011;2720;52.396;10.064;2023-05-01T12:50:40;8.43;;;1.47;;
5393;SDS011;2720;52.396;10.064;2023-05-01T12:53:08;7.37;;;3.20;;
5393;SDS011;2720;52.396;10.064;2023-05-01T12:55:42;5.90;;;2.30;;
5393;SDS011;2720;52.396;10.064;2023-05-01T12:58:11;4.40;;;1.60;;
5393;SDS011;2720;52.396;10.064;2023-05-01T13:00:43;6.10;;;2.20;;
5393;SDS011;2720;52.396;10.064;2023-05-01T13:03:12;4.80;;;1.80;;
5393;SDS011;2720;52.396;10.064;2023-05-01T13:08:31;5.27;;;1.73;;
5393;SDS011;2720;52.396;10.064;2023-05-01T13:11:00;8.10;;;2.10;;
5393;SDS011;2720;52.396;10.064;2023-05-01T13:13:37;7.93;;;1.77;;
5393;SDS011;2720;52.396;10.064;2023-05-01T13:16:07;5.80;;;1.50;;
5393;SDS011;2720;52.396;10.064;2023-05-01T13:18:43;4.73;;;1.80;;
5393;SDS011;2720;52.396;10.064;2023-05-01T13:21:11;4.37;;;1.53;;
5393;SDS011;2720;52.396;10.064;2023-05-01T13:23:40;4.63;;;1.80;;
5393;SDS011;2720;52.396;10.064;2023-05-01T13:26:08;3.57;;;1.40;;
5393;SDS011;2720;52.396;10.064;2023-05-01T13:28:40;7.13;;;1.80;;
5393;SDS011;2720;52.396;10.064;2023-05-01T13:31:11;3.80;;;1.53;;
5393;SDS011;2720;52.396;10.064;2023-05-01T13:33:39;5.80;;;1.70;;
5393;SDS011;2720;52.396;10.064;2023-05-01T13:36:07;5.43;;;1.60;;
5393;SDS011;2720;52.396;10.064;2023-05-01T13:38:40;5.40;;;1.57;;
5393;SDS011;2720;52.396;10.064;2023-05-01T13:41:15;5.20;;;1.80;;
5393;SDS011;2720;52.396;10.064;2023-05-01T13:43:43;5.80;;;1.80;;
5393;SDS011;2720;52.396;10.064;2023-05-01T13:46:12;4.73;;;2.13;;
5393;SDS011;2720;52.396;10.064;2023-05-01T13:48:42;6.67;;;1.90;;
5393;SDS011;2720;52.396;10.064;2023-05-01T13:51:10;13.00;;;1.60;;
5393;SDS011;2720;52.396;10.064;2023-05-01T13:53:38;12.27;;;1.70;;
5393;SDS011;2720;52.396;10.064;2023-05-01T13:56:07;3.90;;;1.73;;
5393;SDS011;2720;52.396;10.064;2023-05-01T13:58:35;10.07;;;2.33;;
5393;SDS011;2720;52.396;10.064;2023-05-01T14:01:02;6.70;;;1.70;;
5393;SDS011;2720;52.396;10.064;2023-05-01T14:03:39;3.83;;;1.30;;
5393;SDS011;2720;52.396;10.064;2023-05-01T14:06:08;5.90;;;2.00;;
5393;SDS011;2720;52.396;10.064;2023-05-01T14:08:35;3.77;;;1.47;;
5393;SDS011;2720;52.396;10.064;2023-05-01T14:11:03;4.23;;;1.13;;
5393;SDS011;2720;52.396;10.064;2023-05-01T14:13:31;7.60;;;2.00;;
5393;SDS011;2720;52.396;10.064;2023-05-01T14:15:57;3.33;;;1.27;;
5393;SDS011;2720;52.396;10.064;2023-05-01T14:18:24;6.50;;;2.13;;
5393;SDS011;2720;52.396;10.064;2023-05-01T14:20:53;4.53;;;1.30;;
5393;SDS011;2720;52.396;10.064;2023-05-01T14:23:20;4.20;;;1.40;;
5393;SDS011;2720;52.396;10.064;2023-05-01T14:25:49;2.80;;;1.10;;
5393;SDS011;2720;52.396;10.064;2023-05-01T14:28:16;3.73;;;1.07;;
5393;SDS011;2720;52.396;10.064;2023-05-01T14:30:43;3.93;;;0.93;;
5393;SDS011;2720;52.396;10.064;2023-05-01T14:33:12;2.93;;;0.93;;
5393;SDS011;2720;52.396;10.064;2023-05-01T14:35:42;3.20;;;1.10;;
5393;SDS011;2720;52.396;10.064;2023-05-01T14:38:16;3.43;;;1.13;;
5393;SDS011;2720;52.396;10.064;2023-05-01T14:40:44;4.23;;;1.23;;
5393;SDS011;2720;52.396;10.064;2023-05-01T14:43:12;2.60;;;0.80;;
5393;SDS011;2720;52.396;10.064;2023-05-01T14:45:41;2.70;;;0.70;;
5393;SDS011;2720;52.396;10.064;2023-05-01T14:48:10;4.63;;;1.03;;
5393;SDS011;2720;52.396;10.064;2023-05-01T14:50:46;2.90;;;0.90;;
5393;SDS011;2720;52.396;10.064;2023-05-01T14:53:13;7.10;;;1.13;;
5393;SDS011;2720;52.396;10.064;2023-05-01T14:55:41;2.60;;;1.10;;
5393;SDS011;2720;52.396;10.064;2023-05-01T14:58:08;3.77;;;1.03;;
5393;SDS011;2720;52.396;10.064;2023-05-01T15:00:35;5.00;;;1.57;;
5393;SDS011;2720;52.396;10.064;2023-05-01T15:03:02;3.60;;;0.70;;
5393;SDS011;2720;52.396;10.064;2023-05-01T15:05:29;2.87;;;1.07;;
5393;SDS011;2720;52.396;10.064;2023-05-01T15:07:56;3.50;;;0.90;;
5393;SDS011;2720;52.396;10.064;2023-05-01T15:10:24;2.77;;;0.73;;
5393;SDS011;2720;52.396;10.064;2023-05-01T15:12:54;3.23;;;0.53;;
5393;SDS011;2720;52.396;10.064;2023-05-01T15:15:21;4.47;;;1.13;;
5393;SDS011;2720;52.396;10.064;2023-05-01T15:17:48;2.97;;;0.80;;
5393;SDS011;2720;52.396;10.064;2023-05-01T15:20:15;3.33;;;1.13;;
5393;SDS011;2720;52.396;10.064;2023-05-01T15:22:42;3.00;;;0.90;;
5393;SDS011;2720;52.396;10.064;2023-05-01T15:25:09;4.17;;;1.03;;
5393;SDS011;2720;52.396;10.064;2023-05-01T15:27:36;3.63;;;0.77;;
5393;SDS011;2720;52.396;10.064;2023-05-01T15:30:05;2.70;;;0.90;;
5393;SDS011;2720;52.396;10.064;2023-05-01T15:32:34;4.43;;;0.80;;